UAL2181 KIAD-KLGA
Flight info
| Callsign | UAL2181 |
|---|---|
| Flight time | 0h 48m |
| Altitude | 21000 |
| Route | JCOBY4 AGARD SPEAK PROUD2 |
| Aircraft | B738/M-SDE2E3FGHIRWXY/LB1 |
Departure
| Time | 2026-05-06 20:31 |
|---|---|
| Airport | Washington Dulles International Airport (KIAD) |
Arrival
| Time | 2026-05-06 21:19 |
|---|---|
| Airport | LaGuardia Airport (KLGA) |
| Time | Latitude | Longitude | Altitude | Speed | Heading |
|---|---|---|---|---|---|
| 2026-05-06 20:08 | 38.94496 | -77.45337 | 299 ft | 0 kts | 3° |
| 2026-05-06 20:20 | 38.94495 | -77.45337 | 302 ft | 1 kts | 3° |
| 2026-05-06 20:20 | 38.94471 | -77.45338 | 299 ft | 4 kts | 3° |
| 2026-05-06 20:21 | 38.94446 | -77.45340 | 301 ft | 2 kts | 3° |
| 2026-05-06 20:21 | 38.94425 | -77.45339 | 302 ft | 4 kts | 326° |
| 2026-05-06 20:21 | 38.94416 | -77.45317 | 299 ft | 4 kts | 271° |
| 2026-05-06 20:21 | 38.94415 | -77.45292 | 299 ft | 0 kts | 271° |
| 2026-05-06 20:22 | 38.94416 | -77.45292 | 299 ft | 0 kts | 271° |
| 2026-05-06 20:23 | 38.94416 | -77.45317 | 299 ft | 6 kts | 271° |
| 2026-05-06 20:23 | 38.94416 | -77.45388 | 299 ft | 9 kts | 270° |
| 2026-05-06 20:24 | 38.94417 | -77.45464 | 299 ft | 8 kts | 270° |
| 2026-05-06 20:24 | 38.94417 | -77.45521 | 299 ft | 5 kts | 270° |
| 2026-05-06 20:24 | 38.94418 | -77.45544 | 299 ft | 2 kts | 270° |
| 2026-05-06 20:24 | 38.94420 | -77.45565 | 299 ft | 3 kts | 287° |
| 2026-05-06 20:25 | 38.94445 | -77.45605 | 299 ft | 10 kts | 328° |
| 2026-05-06 20:25 | 38.94538 | -77.45611 | 299 ft | 17 kts | 0° |
| 2026-05-06 20:25 | 38.94670 | -77.45610 | 301 ft | 20 kts | 0° |
| 2026-05-06 20:25 | 38.94808 | -77.45607 | 300 ft | 19 kts | 1° |
| 2026-05-06 20:26 | 38.94941 | -77.45605 | 302 ft | 19 kts | 1° |
| 2026-05-06 20:26 | 38.95072 | -77.45603 | 300 ft | 19 kts | 0° |
| 2026-05-06 20:26 | 38.95218 | -77.45601 | 299 ft | 24 kts | 0° |
| 2026-05-06 20:26 | 38.95402 | -77.45599 | 299 ft | 27 kts | 0° |
| 2026-05-06 20:27 | 38.95583 | -77.45595 | 301 ft | 25 kts | 0° |
| 2026-05-06 20:27 | 38.95751 | -77.45593 | 299 ft | 23 kts | 0° |
| 2026-05-06 20:27 | 38.95910 | -77.45592 | 304 ft | 23 kts | 0° |
| 2026-05-06 20:27 | 38.96064 | -77.45589 | 299 ft | 22 kts | 1° |
| 2026-05-06 20:28 | 38.96214 | -77.45587 | 302 ft | 21 kts | 0° |
| 2026-05-06 20:28 | 38.96359 | -77.45585 | 304 ft | 21 kts | 0° |
| 2026-05-06 20:28 | 38.96502 | -77.45583 | 299 ft | 20 kts | 0° |
| 2026-05-06 20:28 | 38.96638 | -77.45580 | 300 ft | 19 kts | 1° |
| 2026-05-06 20:29 | 38.96771 | -77.45579 | 302 ft | 19 kts | 0° |
| 2026-05-06 20:29 | 38.96899 | -77.45578 | 302 ft | 18 kts | 0° |
| 2026-05-06 20:29 | 38.97009 | -77.45621 | 301 ft | 17 kts | 291° |
| 2026-05-06 20:29 | 38.97014 | -77.45773 | 303 ft | 17 kts | 270° |
| 2026-05-06 20:30 | 38.97010 | -77.45914 | 302 ft | 11 kts | 246° |
| 2026-05-06 20:30 | 38.96810 | -77.45938 | 302 ft | 44 kts | 180° |
| 2026-05-06 20:30 | 38.96263 | -77.45946 | 299 ft | 111 kts | 181° |
| 2026-05-06 20:31 | 38.95300 | -77.45957 | 332 ft | 160 kts | 179° |
| 2026-05-06 20:31 | 38.94148 | -77.45891 | 926 ft | 167 kts | 178° |
| 2026-05-06 20:31 | 38.92996 | -77.46209 | 1480 ft | 179 kts | 213° |
| 2026-05-06 20:31 | 38.92125 | -77.47394 | 2148 ft | 184 kts | 229° |
| 2026-05-06 20:32 | 38.91300 | -77.48727 | 2741 ft | 198 kts | 231° |
| 2026-05-06 20:32 | 38.90457 | -77.50217 | 3003 ft | 218 kts | 242° |
| 2026-05-06 20:32 | 38.90205 | -77.52165 | 3468 ft | 234 kts | 278° |
| 2026-05-06 20:32 | 38.91004 | -77.54101 | 3794 ft | 264 kts | 315° |
| 2026-05-06 20:33 | 38.92655 | -77.55186 | 4520 ft | 277 kts | 345° |
| 2026-05-06 20:33 | 38.94589 | -77.55258 | 5461 ft | 278 kts | 7° |
| 2026-05-06 20:33 | 38.96427 | -77.54437 | 6209 ft | 289 kts | 30° |
| 2026-05-06 20:33 | 38.97976 | -77.52712 | 6881 ft | 297 kts | 45° |
| 2026-05-06 20:34 | 38.99402 | -77.50782 | 7680 ft | 299 kts | 45° |
| 2026-05-06 20:34 | 39.00875 | -77.48856 | 8395 ft | 305 kts | 43° |
| 2026-05-06 20:34 | 39.02372 | -77.46964 | 9180 ft | 307 kts | 43° |
| 2026-05-06 20:34 | 39.03911 | -77.45057 | 9888 ft | 310 kts | 42° |
| 2026-05-06 20:35 | 39.05500 | -77.43118 | 10405 ft | 321 kts | 42° |
| 2026-05-06 20:35 | 39.07137 | -77.41003 | 10604 ft | 346 kts | 47° |
| 2026-05-06 20:35 | 39.08818 | -77.38691 | 10974 ft | 359 kts | 43° |
| 2026-05-06 20:35 | 39.10656 | -77.36487 | 11561 ft | 365 kts | 40° |
| 2026-05-06 20:36 | 39.12563 | -77.34311 | 12278 ft | 368 kts | 43° |
| 2026-05-06 20:36 | 39.14035 | -77.31616 | 12999 ft | 372 kts | 68° |
| 2026-05-06 20:36 | 39.14496 | -77.28352 | 13680 ft | 374 kts | 95° |
| 2026-05-06 20:36 | 39.14103 | -77.25037 | 14381 ft | 377 kts | 100° |
| 2026-05-06 20:37 | 39.13751 | -77.21663 | 15048 ft | 383 kts | 98° |
| 2026-05-06 20:37 | 39.13463 | -77.18231 | 15701 ft | 388 kts | 97° |
| 2026-05-06 20:37 | 39.13196 | -77.14756 | 16345 ft | 393 kts | 97° |
| 2026-05-06 20:37 | 39.12933 | -77.11236 | 16991 ft | 397 kts | 97° |
| 2026-05-06 20:38 | 39.12665 | -77.07678 | 17609 ft | 401 kts | 97° |
| 2026-05-06 20:38 | 39.12390 | -77.04087 | 18224 ft | 405 kts | 97° |
| 2026-05-06 20:38 | 39.12107 | -77.00449 | 18812 ft | 410 kts | 97° |
| 2026-05-06 20:38 | 39.11819 | -76.96771 | 19371 ft | 415 kts | 97° |
| 2026-05-06 20:39 | 39.11526 | -76.93052 | 19938 ft | 420 kts | 97° |
| 2026-05-06 20:39 | 39.11226 | -76.89273 | 20260 ft | 430 kts | 97° |
| 2026-05-06 20:39 | 39.10918 | -76.85410 | 20512 ft | 437 kts | 97° |
| 2026-05-06 20:39 | 39.10607 | -76.81507 | 20766 ft | 438 kts | 97° |
| 2026-05-06 20:40 | 39.10295 | -76.77618 | 20866 ft | 436 kts | 97° |
| 2026-05-06 20:40 | 39.09985 | -76.73757 | 20868 ft | 432 kts | 97° |
| 2026-05-06 20:40 | 39.09673 | -76.69905 | 20873 ft | 431 kts | 97° |
| 2026-05-06 20:40 | 39.09362 | -76.66064 | 20881 ft | 433 kts | 97° |
| 2026-05-06 20:41 | 39.09046 | -76.62197 | 20872 ft | 434 kts | 97° |
| 2026-05-06 20:41 | 39.08730 | -76.58342 | 20871 ft | 436 kts | 97° |
| 2026-05-06 20:41 | 39.08398 | -76.54461 | 20869 ft | 437 kts | 97° |
| 2026-05-06 20:41 | 39.08060 | -76.50576 | 20885 ft | 436 kts | 98° |
| 2026-05-06 20:42 | 39.07747 | -76.46746 | 20867 ft | 435 kts | 97° |
| 2026-05-06 20:42 | 39.07438 | -76.42882 | 20869 ft | 433 kts | 97° |
| 2026-05-06 20:42 | 39.07126 | -76.39039 | 20852 ft | 432 kts | 97° |
| 2026-05-06 20:42 | 39.06808 | -76.35206 | 20858 ft | 430 kts | 97° |
| 2026-05-06 20:43 | 39.06487 | -76.31389 | 20860 ft | 429 kts | 97° |
| 2026-05-06 20:43 | 39.06164 | -76.27588 | 20861 ft | 428 kts | 97° |
| 2026-05-06 20:43 | 39.05840 | -76.23778 | 20865 ft | 427 kts | 97° |
| 2026-05-06 20:43 | 39.05516 | -76.19971 | 20861 ft | 428 kts | 97° |
| 2026-05-06 20:44 | 39.05190 | -76.16165 | 20869 ft | 429 kts | 97° |
| 2026-05-06 20:44 | 39.04862 | -76.12347 | 20875 ft | 430 kts | 97° |
| 2026-05-06 20:44 | 39.04532 | -76.08519 | 20875 ft | 431 kts | 97° |
| 2026-05-06 20:44 | 39.04384 | -76.04673 | 20866 ft | 433 kts | 89° |
| 2026-05-06 20:45 | 39.04549 | -76.00797 | 20877 ft | 433 kts | 86° |
| 2026-05-06 20:45 | 39.04770 | -75.96934 | 20873 ft | 434 kts | 86° |
| 2026-05-06 20:45 | 39.04985 | -75.93064 | 20871 ft | 433 kts | 86° |
| 2026-05-06 20:45 | 39.05178 | -75.89198 | 20868 ft | 433 kts | 87° |
| 2026-05-06 20:46 | 39.05351 | -75.85338 | 20865 ft | 432 kts | 87° |
| 2026-05-06 20:46 | 39.05515 | -75.81476 | 20865 ft | 431 kts | 87° |
| 2026-05-06 20:46 | 39.05732 | -75.77632 | 20859 ft | 431 kts | 80° |
| 2026-05-06 20:46 | 39.06677 | -75.74010 | 20874 ft | 428 kts | 61° |
| 2026-05-06 20:47 | 39.08408 | -75.70916 | 20870 ft | 424 kts | 44° |
| 2026-05-06 20:47 | 39.10470 | -75.68209 | 20868 ft | 424 kts | 43° |
| 2026-05-06 20:47 | 39.12564 | -75.65532 | 20859 ft | 425 kts | 42° |
| 2026-05-06 20:47 | 39.14657 | -75.62842 | 20852 ft | 425 kts | 43° |
| 2026-05-06 20:48 | 39.16034 | -75.61050 | 20848 ft | 426 kts | 43° |
| 2026-05-06 20:48 | 39.18111 | -75.58318 | 20849 ft | 426 kts | 43° |
| 2026-05-06 20:48 | 39.20173 | -75.55582 | 20851 ft | 426 kts | 44° |
| 2026-05-06 20:48 | 39.22238 | -75.52836 | 20853 ft | 427 kts | 44° |
| 2026-05-06 20:49 | 39.24415 | -75.50242 | 20844 ft | 424 kts | 34° |
| 2026-05-06 20:49 | 39.26818 | -75.48053 | 20860 ft | 423 kts | 31° |
| 2026-05-06 20:49 | 39.29276 | -75.45961 | 20850 ft | 423 kts | 30° |
| 2026-05-06 20:49 | 39.31742 | -75.43879 | 20847 ft | 423 kts | 30° |
| 2026-05-06 20:50 | 39.34193 | -75.41777 | 20848 ft | 423 kts | 31° |
| 2026-05-06 20:50 | 39.36633 | -75.39646 | 20857 ft | 423 kts | 31° |
| 2026-05-06 20:50 | 39.39062 | -75.37499 | 20853 ft | 423 kts | 32° |
| 2026-05-06 20:50 | 39.41491 | -75.35339 | 20859 ft | 424 kts | 32° |
| 2026-05-06 20:51 | 39.43917 | -75.33174 | 20853 ft | 424 kts | 32° |
| 2026-05-06 20:51 | 39.46346 | -75.31006 | 20850 ft | 424 kts | 32° |
| 2026-05-06 20:51 | 39.48763 | -75.28847 | 20837 ft | 416 kts | 32° |
| 2026-05-06 20:51 | 39.51102 | -75.26753 | 20788 ft | 403 kts | 32° |
| 2026-05-06 20:52 | 39.53380 | -75.24653 | 20484 ft | 399 kts | 33° |
| 2026-05-06 20:52 | 39.55619 | -75.22548 | 20093 ft | 397 kts | 33° |
| 2026-05-06 20:52 | 39.57839 | -75.20451 | 19692 ft | 394 kts | 33° |
| 2026-05-06 20:52 | 39.60044 | -75.18372 | 19293 ft | 391 kts | 33° |
| 2026-05-06 20:53 | 39.62238 | -75.16309 | 18888 ft | 388 kts | 33° |
| 2026-05-06 20:53 | 39.64416 | -75.14262 | 18484 ft | 386 kts | 33° |
| 2026-05-06 20:53 | 39.66583 | -75.12227 | 18076 ft | 383 kts | 33° |
| 2026-05-06 20:53 | 39.68746 | -75.10218 | 17670 ft | 381 kts | 32° |
| 2026-05-06 20:54 | 39.70936 | -75.08313 | 17272 ft | 378 kts | 30° |
| 2026-05-06 20:54 | 39.73132 | -75.06453 | 16921 ft | 374 kts | 30° |
| 2026-05-06 20:54 | 39.75273 | -75.04641 | 16586 ft | 370 kts | 30° |
| 2026-05-06 20:54 | 39.77421 | -75.02811 | 16208 ft | 368 kts | 31° |
| 2026-05-06 20:55 | 39.79582 | -75.00958 | 15814 ft | 367 kts | 31° |
| 2026-05-06 20:55 | 39.81702 | -74.99130 | 15428 ft | 365 kts | 31° |
| 2026-05-06 20:55 | 39.83787 | -74.97330 | 15043 ft | 363 kts | 31° |
| 2026-05-06 20:55 | 39.85880 | -74.95504 | 14649 ft | 363 kts | 32° |
| 2026-05-06 20:56 | 39.87948 | -74.93632 | 14253 ft | 361 kts | 33° |
| 2026-05-06 20:56 | 39.90001 | -74.91760 | 13858 ft | 360 kts | 33° |
| 2026-05-06 20:56 | 39.92048 | -74.89885 | 13457 ft | 359 kts | 35° |
| 2026-05-06 20:56 | 39.93877 | -74.87692 | 13069 ft | 359 kts | 47° |
| 2026-05-06 20:57 | 39.95515 | -74.85251 | 12690 ft | 357 kts | 49° |
| 2026-05-06 20:57 | 39.97138 | -74.82812 | 12300 ft | 355 kts | 49° |
| 2026-05-06 20:57 | 39.98772 | -74.80396 | 11915 ft | 354 kts | 47° |
| 2026-05-06 20:57 | 40.00419 | -74.78019 | 11531 ft | 353 kts | 47° |
| 2026-05-06 20:58 | 40.02067 | -74.75659 | 11152 ft | 351 kts | 47° |
| 2026-05-06 20:58 | 40.03695 | -74.73329 | 10937 ft | 344 kts | 47° |
| 2026-05-06 20:58 | 40.05298 | -74.71032 | 10644 ft | 340 kts | 47° |
| 2026-05-06 20:58 | 40.06880 | -74.68760 | 10386 ft | 335 kts | 47° |
| 2026-05-06 20:59 | 40.08442 | -74.66512 | 10116 ft | 332 kts | 48° |
| 2026-05-06 20:59 | 40.09978 | -74.64302 | 9947 ft | 325 kts | 48° |
| 2026-05-06 20:59 | 40.11468 | -74.62160 | 9935 ft | 312 kts | 48° |
| 2026-05-06 20:59 | 40.12913 | -74.60083 | 9692 ft | 309 kts | 48° |
| 2026-05-06 21:00 | 40.14340 | -74.58025 | 9543 ft | 302 kts | 48° |
| 2026-05-06 21:00 | 40.15744 | -74.56000 | 9385 ft | 299 kts | 48° |
| 2026-05-06 21:00 | 40.17140 | -74.53998 | 9244 ft | 298 kts | 48° |
| 2026-05-06 21:00 | 40.18528 | -74.51990 | 9098 ft | 298 kts | 48° |
| 2026-05-06 21:01 | 40.19914 | -74.49984 | 8975 ft | 297 kts | 48° |
| 2026-05-06 21:01 | 40.21340 | -74.48036 | 8834 ft | 296 kts | 44° |
| 2026-05-06 21:01 | 40.22831 | -74.46176 | 8711 ft | 296 kts | 43° |
| 2026-05-06 21:01 | 40.24327 | -74.44326 | 8563 ft | 296 kts | 43° |
| 2026-05-06 21:02 | 40.25815 | -74.42466 | 8448 ft | 296 kts | 44° |
| 2026-05-06 21:02 | 40.27299 | -74.40600 | 8317 ft | 296 kts | 44° |
| 2026-05-06 21:02 | 40.28780 | -74.38728 | 8190 ft | 295 kts | 44° |
| 2026-05-06 21:02 | 40.30259 | -74.36856 | 8067 ft | 296 kts | 44° |
| 2026-05-06 21:03 | 40.31741 | -74.34981 | 7930 ft | 297 kts | 44° |
| 2026-05-06 21:03 | 40.33226 | -74.33103 | 7797 ft | 297 kts | 44° |
| 2026-05-06 21:03 | 40.34717 | -74.31216 | 7659 ft | 297 kts | 44° |
| 2026-05-06 21:03 | 40.36201 | -74.29334 | 7520 ft | 296 kts | 44° |
| 2026-05-06 21:04 | 40.37681 | -74.27458 | 7395 ft | 296 kts | 44° |
| 2026-05-06 21:04 | 40.39155 | -74.25585 | 7268 ft | 295 kts | 44° |
| 2026-05-06 21:04 | 40.40627 | -74.23715 | 7132 ft | 294 kts | 44° |
| 2026-05-06 21:04 | 40.42098 | -74.21847 | 7000 ft | 294 kts | 44° |
| 2026-05-06 21:05 | 40.43561 | -74.19987 | 6876 ft | 293 kts | 44° |
| 2026-05-06 21:05 | 40.45019 | -74.18128 | 6739 ft | 291 kts | 44° |
| 2026-05-06 21:05 | 40.46471 | -74.16277 | 6609 ft | 290 kts | 44° |
| 2026-05-06 21:05 | 40.47913 | -74.14441 | 6477 ft | 289 kts | 44° |
| 2026-05-06 21:06 | 40.49334 | -74.12627 | 6357 ft | 287 kts | 44° |
| 2026-05-06 21:06 | 40.50786 | -74.10774 | 6231 ft | 287 kts | 44° |
| 2026-05-06 21:06 | 40.52218 | -74.09010 | 6090 ft | 287 kts | 38° |
| 2026-05-06 21:06 | 40.53860 | -74.07532 | 6023 ft | 285 kts | 31° |
| 2026-05-06 21:07 | 40.55540 | -74.06166 | 5983 ft | 282 kts | 30° |
| 2026-05-06 21:07 | 40.57203 | -74.04822 | 5978 ft | 277 kts | 31° |
| 2026-05-06 21:07 | 40.58800 | -74.03504 | 5964 ft | 265 kts | 31° |
| 2026-05-06 21:07 | 40.60322 | -74.02228 | 5954 ft | 253 kts | 32° |
| 2026-05-06 21:08 | 40.61777 | -74.01004 | 5964 ft | 245 kts | 31° |
| 2026-05-06 21:08 | 40.63209 | -73.99796 | 5972 ft | 244 kts | 31° |
| 2026-05-06 21:08 | 40.64611 | -73.98490 | 5973 ft | 251 kts | 47° |
| 2026-05-06 21:08 | 40.65732 | -73.96669 | 6024 ft | 269 kts | 53° |
| 2026-05-06 21:09 | 40.66933 | -73.94654 | 6018 ft | 286 kts | 52° |
| 2026-05-06 21:09 | 40.68179 | -73.92571 | 5978 ft | 292 kts | 52° |
| 2026-05-06 21:09 | 40.69419 | -73.90465 | 5969 ft | 290 kts | 52° |
| 2026-05-06 21:09 | 40.70647 | -73.88366 | 5949 ft | 288 kts | 52° |
| 2026-05-06 21:10 | 40.71864 | -73.86282 | 5966 ft | 286 kts | 52° |
| 2026-05-06 21:10 | 40.73073 | -73.84206 | 5951 ft | 285 kts | 52° |
| 2026-05-06 21:10 | 40.74274 | -73.82142 | 5964 ft | 284 kts | 52° |
| 2026-05-06 21:10 | 40.75476 | -73.80078 | 5966 ft | 284 kts | 52° |
| 2026-05-06 21:11 | 40.76679 | -73.78006 | 5930 ft | 285 kts | 52° |
| 2026-05-06 21:11 | 40.77892 | -73.75956 | 5766 ft | 282 kts | 46° |
| 2026-05-06 21:11 | 40.79429 | -73.74346 | 5407 ft | 284 kts | 32° |
| 2026-05-06 21:11 | 40.81067 | -73.72902 | 5126 ft | 283 kts | 32° |
| 2026-05-06 21:12 | 40.82699 | -73.71461 | 4889 ft | 280 kts | 32° |
| 2026-05-06 21:12 | 40.84319 | -73.70032 | 4620 ft | 280 kts | 32° |
| 2026-05-06 21:12 | 40.85937 | -73.68612 | 4360 ft | 278 kts | 32° |
| 2026-05-06 21:12 | 40.87549 | -73.67208 | 4081 ft | 278 kts | 32° |
| 2026-05-06 21:13 | 40.89173 | -73.65829 | 3822 ft | 276 kts | 27° |
| 2026-05-06 21:13 | 40.90990 | -73.65247 | 3535 ft | 269 kts | 351° |
| 2026-05-06 21:13 | 40.92663 | -73.66110 | 3291 ft | 254 kts | 315° |
| 2026-05-06 21:13 | 40.93760 | -73.67860 | 3099 ft | 243 kts | 295° |
| 2026-05-06 21:14 | 40.94335 | -73.69880 | 3013 ft | 228 kts | 276° |
| 2026-05-06 21:14 | 40.94397 | -73.71896 | 2985 ft | 212 kts | 259° |
| 2026-05-06 21:14 | 40.93929 | -73.73618 | 2988 ft | 191 kts | 226° |
| 2026-05-06 21:14 | 40.92946 | -73.74692 | 3006 ft | 182 kts | 218° |
| 2026-05-06 21:15 | 40.91966 | -73.75736 | 2989 ft | 181 kts | 219° |
| 2026-05-06 21:15 | 40.90961 | -73.76753 | 2851 ft | 182 kts | 214° |
| 2026-05-06 21:15 | 40.89918 | -73.77670 | 2626 ft | 178 kts | 212° |
| 2026-05-06 21:15 | 40.88884 | -73.78532 | 2390 ft | 173 kts | 211° |
| 2026-05-06 21:16 | 40.87905 | -73.79338 | 2170 ft | 162 kts | 211° |
| 2026-05-06 21:16 | 40.86971 | -73.80107 | 1949 ft | 157 kts | 211° |
| 2026-05-06 21:16 | 40.86048 | -73.80869 | 1783 ft | 154 kts | 211° |
| 2026-05-06 21:16 | 40.85146 | -73.81616 | 1554 ft | 151 kts | 211° |
| 2026-05-06 21:17 | 40.84263 | -73.82342 | 1349 ft | 148 kts | 211° |
| 2026-05-06 21:17 | 40.83378 | -73.83059 | 1102 ft | 150 kts | 211° |
| 2026-05-06 21:17 | 40.82494 | -73.83794 | 937 ft | 150 kts | 211° |
| 2026-05-06 21:17 | 40.81613 | -73.84523 | 766 ft | 149 kts | 211° |
| 2026-05-06 21:18 | 40.80732 | -73.85266 | 572 ft | 151 kts | 211° |
| 2026-05-06 21:18 | 40.79840 | -73.86001 | 370 ft | 152 kts | 211° |
| 2026-05-06 21:18 | 40.78944 | -73.86740 | 154 ft | 152 kts | 212° |
| 2026-05-06 21:18 | 40.78056 | -73.87471 | 15 ft | 144 kts | 211° |
| 2026-05-06 21:19 | 40.77355 | -73.88053 | 21 ft | 89 kts | 212° |
| 2026-05-06 21:19 | 40.77054 | -73.88302 | 26 ft | 26 kts | 212° |
| 2026-05-06 21:19 | 40.76937 | -73.88371 | 29 ft | 12 kts | 158° |
| 2026-05-06 21:19 | 40.76949 | -73.88274 | 27 ft | 12 kts | 47° |
| 2026-05-06 21:20 | 40.77016 | -73.88191 | 26 ft | 14 kts | 42° |
| 2026-05-06 21:20 | 40.77096 | -73.88115 | 21 ft | 15 kts | 32° |
| 2026-05-06 21:20 | 40.77180 | -73.88046 | 22 ft | 14 kts | 32° |
| 2026-05-06 21:20 | 40.77261 | -73.87979 | 20 ft | 13 kts | 32° |
| 2026-05-06 21:21 | 40.77338 | -73.87916 | 21 ft | 13 kts | 32° |
| 2026-05-06 21:21 | 40.77413 | -73.87854 | 19 ft | 13 kts | 31° |
| 2026-05-06 21:21 | 40.77492 | -73.87789 | 21 ft | 13 kts | 32° |
| 2026-05-06 21:21 | 40.77543 | -73.87707 | 19 ft | 13 kts | 105° |
| 2026-05-06 21:22 | 40.77497 | -73.87608 | 19 ft | 12 kts | 120° |
| 2026-05-06 21:22 | 40.77454 | -73.87511 | 20 ft | 12 kts | 117° |
| 2026-05-06 21:22 | 40.77433 | -73.87404 | 19 ft | 12 kts | 97° |
| 2026-05-06 21:22 | 40.77431 | -73.87297 | 19 ft | 12 kts | 92° |
| 2026-05-06 21:23 | 40.77416 | -73.87194 | 20 ft | 11 kts | 112° |
| 2026-05-06 21:23 | 40.77385 | -73.87124 | 20 ft | 4 kts | 105° |
| 2026-05-06 21:23 | 40.77397 | -73.87088 | 19 ft | 3 kts | 68° |
| 2026-05-06 21:23 | 40.77401 | -73.87063 | 19 ft | 3 kts | 82° |
| 2026-05-06 21:24 | 40.77400 | -73.87045 | 19 ft | 1 kts | 101° |
| 2026-05-06 21:24 | 40.77398 | -73.87033 | 20 ft | 1 kts | 102° |
| 2026-05-06 21:24 | 40.77396 | -73.87025 | 20 ft | 0 kts | 103° |